Time;durP1;ratioP1;P1;durP2;ratioP2;P2;SDS_P1;SDS_P2;PMS_P1;PMS_P2;Temp;Humidity;BMP_temperature;BMP_pressure;BME280_temperature;BME280_humidity;BME280_pressure;Samples;Min_cycle;Max_cycle;Signal;HPM_P1;HPM_P2
2023/01/13 00:03:23;;;;;;;10.93;5.95;;;;;;;3.39;84.52;98146.94;10332207;28;20128;-48
2023/01/13 00:08:21;;;;;;;10.45;5.65;;;;;;;3.50;84.31;98149.00;10329436;28;20152;-49
2023/01/13 00:13:25;;;;;;;10.23;6.50;;;;;;;3.52;84.07;98155.94;10330612;28;20244;-47
2023/01/13 00:18:24;;;;;;;11.05;6.53;;;;;;;3.20;83.52;98100.97;10316037;28;21005;-48
2023/01/13 00:23:23;;;;;;;11.02;6.70;;;;;;;3.59;83.85;98149.31;10328387;28;20156;-48
2023/01/13 00:28:22;;;;;;;14.88;9.07;;;;;;;3.04;83.44;98070.53;10328657;28;20072;-49
2023/01/13 00:33:21;;;;;;;20.55;14.18;;;;;;;3.37;83.75;98143.44;10330754;28;20108;-48
2023/01/13 00:38:20;;;;;;;19.98;13.35;;;;;;;3.21;83.98;98131.81;10329950;28;20077;-49
2023/01/13 00:43:22;;;;;;;14.75;9.50;;;;;;;3.36;84.02;98154.53;10328373;28;20061;-48
2023/01/13 00:48:22;;;;;;;16.48;10.00;;;;;;;2.90;84.44;98101.66;10330123;28;20060;-48
2023/01/13 00:53:21;;;;;;;15.25;9.65;;;;;;;3.16;84.08;98117.06;10328851;28;20140;-48
2023/01/13 00:58:20;;;;;;;14.52;9.30;;;;;;;3.46;84.61;98152.28;10330111;28;20129;-47
2023/01/13 01:03:19;;;;;;;15.32;9.02;;;;;;;3.53;84.76;98154.22;10328619;28;20064;-48
2023/01/13 01:08:18;;;;;;;16.60;10.57;;;;;;;3.61;84.30;98153.66;10329303;28;20120;-51
2023/01/13 01:13:17;;;;;;;16.83;10.05;;;;;;;3.35;84.90;98095.47;10331830;28;20132;-49
2023/01/13 01:18:16;;;;;;;16.25;9.45;;;;;;;3.71;85.01;98144.56;10314395;28;20029;-50
2023/01/13 01:23:15;;;;;;;145.48;75.47;;;;;;;3.58;84.65;98137.28;10308695;28;20477;-50
2023/01/13 01:28:17;;;;;;;21.10;12.82;;;;;;;3.63;85.37;98144.28;10325011;28;20045;-48
2023/01/13 01:33:16;;;;;;;129.10;52.95;;;;;;;3.68;85.36;98125.63;10329398;28;20451;-47
2023/01/13 01:38:15;;;;;;;45.08;22.38;;;;;;;3.81;85.39;98128.63;10320420;28;20955;-46
2023/01/13 01:48:36;;;;;;;;;;;;;;;3.92;84.41;98125.53;10327712;28;20069;-47
2023/01/13 01:53:35;;;;;;;14.35;8.07;;;;;;;3.88;84.05;98126.25;10327781;28;19975;-48
2023/01/13 01:58:44;;;;;;;16.95;11.27;;;;;;;3.83;84.32;98121.84;10329187;28;20057;-46
2023/01/13 02:03:53;;;;;;;14.02;8.98;;;;;;;3.83;83.85;98118.41;10329770;28;20092;-48
2023/01/13 02:08:52;;;;;;;13.43;9.27;;;;;;;3.86;83.83;98121.94;10324489;28;20121;-47
2023/01/13 02:13:51;;;;;;;14.55;8.90;;;;;;;3.65;83.88;98082.78;10328075;28;20152;-47
2023/01/13 02:18:56;;;;;;;17.13;9.88;;;;;;;3.85;84.01;98122.78;10322355;28;20121;-49
2023/01/13 02:35:33;;;;;;;22.70;14.20;;;;;;;3.81;84.33;98118.34;10328029;28;20084;-47
2023/01/13 02:40:41;;;;;;;19.08;12.25;;;;;;;3.72;84.40;98119.78;10323435;28;20620;-49
2023/01/13 02:45:49;;;;;;;26.25;15.48;;;;;;;3.62;84.97;98119.47;10328345;28;20061;-50
2023/01/13 02:51:02;;;;;;;27.02;14.52;;;;;;;3.67;85.27;98116.19;10326859;28;20061;-50
2023/01/13 02:56:04;;;;;;;23.75;14.45;;;;;;;3.61;85.44;98121.97;10336303;28;20439;-47
2023/01/13 03:01:03;;;;;;;25.65;14.48;;;;;;;3.67;85.77;98122.19;10336414;28;20065;-48
2023/01/13 03:06:20;;;;;;;23.98;15.27;;;;;;;3.70;85.79;98122.28;10336835;28;20514;-50
2023/01/13 03:11:20;;;;;;;25.20;13.93;;;;;;;3.79;85.90;98129.41;10333385;28;20075;-47
2023/01/13 03:16:34;;;;;;;20.52;11.52;;;;;;;3.82;86.34;98122.69;10337384;28;20073;-48
2023/01/13 03:21:44;;;;;;;19.08;10.90;;;;;;;3.85;85.62;98127.03;10340609;28;20065;-49
2023/01/13 03:26:58;;;;;;;23.52;13.35;;;;;;;3.71;86.31;98134.31;10339694;28;20049;-51
2023/01/13 03:32:09;;;;;;;24.63;14.82;;;;;;;3.70;86.43;98129.97;10334719;28;20071;-46
2023/01/13 03:37:09;;;;;;;22.60;13.65;;;;;;;3.58;86.34;98109.06;10332479;28;20083;-49
2023/01/13 03:42:23;;;;;;;20.35;12.38;;;;;;;3.61;86.05;98106.56;10332239;28;20080;-50
2023/01/13 03:47:40;;;;;;;21.02;11.40;;;;;;;3.55;86.73;98142.31;10336869;28;20060;-48
2023/01/13 03:53:14;;;;;;;26.17;15.02;;;;;;;3.40;86.56;98128.19;10339896;28;20060;-48
2023/01/13 03:58:24;;;;;;;18.77;11.38;;;;;;;3.39;86.63;98138.38;10324282;28;20128;-48
2023/01/13 04:03:33;;;;;;;21.38;12.55;;;;;;;3.35;87.35;98134.81;10347201;28;20079;-50
2023/01/13 04:08:35;;;;;;;23.63;13.57;;;;;;;3.37;87.01;98142.56;10334001;28;20510;-49
2023/01/13 04:13:38;;;;;;;30.65;17.55;;;;;;;3.23;87.54;98135.28;10334554;28;20076;-50
2023/01/13 04:18:38;;;;;;;27.92;15.52;;;;;;;2.76;87.62;98080.69;10313332;28;20511;-50
2023/01/13 04:23:37;;;;;;;21.08;11.27;;;;;;;3.11;87.50;98149.38;10335491;28;20073;-49
2023/01/13 04:28:36;;;;;;;14.55;9.02;;;;;;;2.91;88.42;98146.13;10308013;28;20117;-48
2023/01/13 04:33:35;;;;;;;15.95;8.75;;;;;;;2.87;88.75;98150.28;10331968;28;20500;-48
2023/01/13 04:38:34;;;;;;;14.43;7.80;;;;;;;2.84;88.55;98150.19;10309579;28;20586;-48
2023/01/13 04:43:33;;;;;;;14.25;8.30;;;;;;;2.87;88.61;98147.72;10310850;28;20472;-47
2023/01/13 04:48:32;;;;;;;15.68;8.57;;;;;;;2.91;88.61;98140.97;10309081;28;20469;-48
2023/01/13 04:53:31;;;;;;;15.68;9.15;;;;;;;3.05;88.78;98151.72;10336093;28;20124;-48
2023/01/13 04:58:30;;;;;;;21.30;11.32;;;;;;;3.07;89.04;98161.22;10332034;28;20032;-48
2023/01/13 05:03:29;;;;;;;22.08;11.85;;;;;;;3.12;89.14;98166.50;10332892;28;20116;-50
2023/01/13 05:08:28;;;;;;;17.77;10.70;;;;;;;3.14;88.81;98167.44;10334979;28;20128;-48
2023/01/13 05:18:44;;;;;;;62.20;36.58;;;;;;;3.26;88.34;98166.97;10327909;28;20822;-46
2023/01/13 05:29:00;;;;;;;18.15;9.75;;;;;;;3.31;88.42;98171.47;10306438;28;20073;-49
2023/01/13 05:33:59;;;;;;;31.85;16.10;;;;;;;3.36;88.13;98167.38;10331629;28;20496;-49
2023/01/13 05:38:58;;;;;;;19.33;11.45;;;;;;;3.28;88.21;98168.78;10298508;28;20053;-50
2023/01/13 05:43:57;;;;;;;22.63;11.57;;;;;;;3.20;88.17;98178.78;10291894;28;20812;-49
2023/01/13 05:48:57;;;;;;;22.00;13.80;;;;;;;3.19;89.59;98179.63;10329818;28;20554;-49
2023/01/13 05:53:58;;;;;;;20.63;11.15;;;;;;;3.17;88.96;98171.00;10330428;28;20549;-46
2023/01/13 05:58:56;;;;;;;26.80;15.43;;;;;;;3.25;88.96;98171.25;10307263;28;20547;-46
2023/01/13 06:03:55;;;;;;;19.02;10.13;;;;;;;3.25;88.46;98163.56;10330985;28;20479;-48
2023/01/13 06:08:54;;;;;;;25.55;13.77;;;;;;;3.30;89.23;98185.09;10308198;28;20065;-48
2023/01/13 06:13:53;;;;;;;22.02;10.30;;;;;;;3.30;88.69;98166.28;10330955;28;20128;-49
2023/01/13 06:18:53;;;;;;;24.48;15.38;;;;;;;3.28;88.63;98179.03;10310925;28;20121;-46
2023/01/13 06:23:52;;;;;;;27.08;16.65;;;;;;;3.32;88.64;98190.28;10330839;28;20479;-46
2023/01/13 06:28:51;;;;;;;23.27;14.18;;;;;;;3.22;89.19;98189.97;10317630;28;20800;-49
2023/01/13 06:33:54;;;;;;;21.02;13.15;;;;;;;3.27;89.09;98181.56;10327130;28;20546;-47
2023/01/13 06:38:58;;;;;;;17.05;9.07;;;;;;;3.25;88.66;98202.03;10328510;28;20079;-49
2023/01/13 06:43:59;;;;;;;23.33;16.23;;;;;;;3.25;89.28;98199.47;10367426;28;20393;-49
2023/01/13 06:48:58;;;;;;;23.20;14.23;;;;;;;3.31;89.42;98199.69;10362722;28;20044;-48
2023/01/13 06:53:57;;;;;;;25.33;15.63;;;;;;;3.42;88.85;98198.38;10363250;28;20069;-48
2023/01/13 06:58:56;;;;;;;35.90;21.88;;;;;;;3.53;88.43;98202.97;10349404;28;20031;-48
2023/01/13 07:03:55;;;;;;;37.33;21.38;;;;;;;3.52;88.22;98208.91;10366528;28;20112;-49
2023/01/13 07:08:53;;;;;;;31.88;17.15;;;;;;;3.56;88.64;98205.63;10364405;28;20049;-49
2023/01/13 07:19:10;;;;;;;21.88;12.15;;;;;;;3.68;88.01;98206.03;10350482;28;20057;-49
2023/01/13 07:24:09;;;;;;;36.97;18.00;;;;;;;3.78;88.30;98213.25;10363055;28;20068;-50
2023/01/13 07:29:08;;;;;;;39.13;21.38;;;;;;;3.89;88.69;98216.16;10347093;28;20025;-49
2023/01/13 07:34:07;;;;;;;39.95;20.13;;;;;;;4.04;88.05;98210.66;10366390;28;20056;-50
2023/01/13 07:39:06;;;;;;;40.50;22.02;;;;;;;4.19;87.84;98216.25;10336620;28;20021;-50
2023/01/13 07:44:05;;;;;;;53.17;27.35;;;;;;;4.28;87.09;98211.41;10375271;28;20072;-50
2023/01/13 07:49:05;;;;;;;63.72;34.50;;;;;;;4.31;87.06;98194.34;10357461;28;20448;-49
2023/01/13 07:54:05;;;;;;;62.95;34.58;;;;;;;4.52;86.34;98210.41;10364395;28;20056;-48
2023/01/13 07:59:04;;;;;;;69.00;38.45;;;;;;;4.56;85.46;98216.53;10376186;28;20060;-49
2023/01/13 08:04:03;;;;;;;80.70;45.05;;;;;;;4.57;85.30;98223.41;10373823;28;20060;-50
2023/01/13 08:09:02;;;;;;;;;;;;;;;4.62;85.92;98227.88;10370069;28;20079;-47
2023/01/13 08:14:01;;;;;;;78.22;40.38;;;;;;;4.77;85.75;98232.59;10370606;28;20346;-49
2023/01/13 08:19:00;;;;;;;92.25;46.75;;;;;;;4.94;85.38;98233.13;10348052;28;20426;-50
2023/01/13 08:23:59;;;;;;;87.50;45.08;;;;;;;5.00;85.28;98230.72;10355253;28;20034;-50
2023/01/13 08:28:58;;;;;;;87.80;46.78;;;;;;;5.12;84.82;98230.19;10368831;28;20466;-49
2023/01/13 08:33:57;;;;;;;101.72;62.67;;;;;;;5.27;84.30;98238.34;10370356;28;20581;-49
2023/01/13 08:38:56;;;;;;;93.95;49.50;;;;;;;5.40;83.63;98256.72;10372374;28;20462;-51
2023/01/13 08:43:55;;;;;;;99.82;53.10;;;;;;;5.49;82.18;98231.22;10365311;28;20079;-48
2023/01/13 08:48:54;;;;;;;101.70;55.72;;;;;;;4.36;81.75;98059.19;10369935;28;20115;-48
2023/01/13 08:53:53;;;;;;;;;;;;;;;5.28;82.25;98234.94;10370860;28;20056;-49
2023/01/13 08:58:52;;;;;;;89.07;49.03;;;;;;;5.06;82.98;98225.78;10369010;28;19924;-48
2023/01/13 09:03:51;;;;;;;87.85;50.00;;;;;;;5.06;83.78;98222.31;10369864;28;20036;-49
2023/01/13 09:08:50;;;;;;;89.38;50.03;;;;;;;4.95;84.08;98219.44;10370750;28;20091;-50
2023/01/13 09:13:49;;;;;;;85.60;48.85;;;;;;;5.03;84.08;98215.38;10364666;28;20065;-50
2023/01/13 09:18:48;;;;;;;85.07;44.95;;;;;;;5.11;84.04;98208.75;10343147;28;20030;-48
2023/01/13 09:23:47;;;;;;;59.38;33.45;;;;;;;4.96;83.59;98205.75;10370939;28;20033;-48
2023/01/13 09:28:46;;;;;;;78.35;44.30;;;;;;;4.86;84.54;98211.44;10370171;28;20049;-49
2023/01/13 09:39:03;;;;;;;46.42;26.77;;;;;;;5.17;84.58;98204.59;10371309;28;20064;-49
2023/01/13 09:44:05;;;;;;;;;;;;;;;5.10;84.19;98196.72;10366382;28;20077;-49
2023/01/13 09:49:09;;;;;;;42.78;25.73;;;;;;;4.58;84.33;98125.78;10367627;28;19952;-49
2023/01/13 09:54:21;;;;;;;47.03;27.48;;;;;;;4.88;84.59;98141.22;10365410;28;20072;-50
2023/01/13 09:59:20;;;;;;;28.02;17.23;;;;;;;5.30;84.33;98194.69;10369792;28;20144;-51
2023/01/13 10:18:35;;;;;;;106.07;55.05;;;;;;;6.26;83.34;98182.47;10514471;27;20474;-50
2023/01/13 10:23:55;;;;;;;183.90;75.22;;;;;;;6.70;80.89;98171.38;10485754;28;20158;-48
2023/01/13 10:28:56;;;;;;;148.43;64.15;;;;;;;6.61;77.30;98165.22;10484423;28;20157;-50
2023/01/13 10:34:02;;;;;;;140.32;57.00;;;;;;;6.43;79.19;98169.09;10488888;28;20059;-50
2023/01/13 10:39:13;;;;;;;14.32;8.70;;;;;;;6.21;77.48;98168.63;10468174;28;20114;-51
2023/01/13 10:44:15;;;;;;;15.93;10.38;;;;;;;5.98;78.52;98161.22;10480901;28;20052;-51
2023/01/13 10:49:35;;;;;;;22.63;12.32;;;;;;;6.29;78.99;98148.16;10473880;28;20459;-49
2023/01/13 10:54:35;;;;;;;12.23;7.50;;;;;;;6.43;76.37;98149.34;10482072;28;20063;-47
2023/01/13 10:59:34;;;;;;;16.30;9.45;;;;;;;6.28;77.24;98137.00;10489535;28;20054;-48
2023/01/13 11:04:42;;;;;;;14.20;8.70;;;;;;;6.37;77.04;98144.94;10484423;28;20016;-51
2023/01/13 11:09:43;;;;;;;31.75;19.92;;;;;;;6.48;77.80;98145.16;10484179;28;20074;-50
2023/01/13 11:14:45;;;;;;;17.98;11.15;;;;;;;6.55;77.33;98138.41;10478716;28;20670;-49
2023/01/13 11:19:57;;;;;;;21.58;14.93;;;;;;;6.57;76.83;98126.44;10430296;28;20063;-51
2023/01/13 11:30:55;;;;;;;14.43;9.50;;;;;;;6.91;76.50;98127.09;10456024;28;20469;-50
2023/01/13 11:36:12;;;;;;;13.95;9.00;;;;;;;6.97;74.66;98117.75;10453638;28;20490;-50
2023/01/13 11:41:35;;;;;;;13.10;7.65;;;;;;;6.91;73.81;98121.94;10444219;28;20062;-50
2023/01/13 11:46:35;;;;;;;26.88;16.40;;;;;;;6.77;75.05;98114.81;10459683;28;20062;-49
2023/01/13 11:51:36;;;;;;;9.00;4.88;;;;;;;6.79;71.99;98115.69;10465134;28;20079;-50
2023/01/13 11:57:07;;;;;;;12.05;7.10;;;;;;;6.70;74.18;98109.47;10462102;28;20048;-49
2023/01/13 12:02:25;;;;;;;28.50;21.38;;;;;;;6.88;74.00;98102.09;10438685;28;20090;-50
2023/01/13 12:07:45;;;;;;;14.90;10.30;;;;;;;6.85;74.05;98102.06;10467524;28;20055;-51
2023/01/13 12:12:55;;;;;;;26.10;17.45;;;;;;;6.89;74.00;98109.03;10460146;28;20767;-50
2023/01/13 12:18:18;;;;;;;22.70;15.43;;;;;;;6.79;74.46;98105.38;10466224;28;20060;-51
2023/01/13 12:23:33;;;;;;;25.80;16.52;;;;;;;6.93;73.76;98097.91;10467934;28;20177;-49
2023/01/13 12:29:00;;;;;;;53.75;33.88;;;;;;;6.97;75.21;98089.38;10462572;28;20067;-50
2023/01/13 12:34:23;;;;;;;23.23;14.20;;;;;;;7.25;74.36;98083.00;10428004;28;20064;-50
2023/01/13 12:39:38;;;;;;;24.70;17.67;;;;;;;7.29;73.57;98095.97;10441216;28;20087;-50
2023/01/13 12:45:18;;;;;;;22.85;13.93;;;;;;;7.39;73.86;98079.81;10429663;28;20805;-51
2023/01/13 12:50:20;;;;;;;57.70;45.30;;;;;;;7.24;72.37;98091.59;10439412;28;20483;-50
2023/01/13 12:55:33;;;;;;;54.03;34.13;;;;;;;6.67;73.76;98061.28;10440638;28;20091;-51
2023/01/13 13:00:38;;;;;;;23.40;13.95;;;;;;;7.10;73.82;98103.41;10435060;28;20063;-49
2023/01/13 13:06:08;;;;;;;15.82;10.77;;;;;;;7.19;73.64;98101.00;10430033;28;20211;-50
2023/01/13 13:16:42;;;;;;;25.10;18.65;;;;;;;7.17;72.12;98100.09;10447775;28;19947;-51
2023/01/13 13:22:16;;;;;;;22.15;14.57;;;;;;;7.12;73.55;98101.69;10435107;28;20060;-48
2023/01/13 13:27:23;;;;;;;24.52;15.63;;;;;;;7.00;73.12;98106.63;10439006;28;20056;-49
2023/01/13 13:32:38;;;;;;;32.97;23.13;;;;;;;6.80;74.64;98109.72;10427376;28;20064;-48
2023/01/13 13:48:25;;;;;;;35.03;24.92;;;;;;;6.30;75.16;98019.31;10420991;28;20067;-52
2023/01/13 13:53:28;;;;;;;34.70;26.95;;;;;;;7.06;75.49;98106.75;10420405;28;20071;-50
2023/01/13 13:58:32;;;;;;;31.88;23.33;;;;;;;6.94;74.58;98070.41;10423421;28;20059;-50
2023/01/13 14:03:34;;;;;;;26.92;19.88;;;;;;;7.09;73.63;98106.81;10421022;28;20115;-50
2023/01/13 14:08:36;;;;;;;26.88;18.35;;;;;;;7.03;74.20;98098.97;10421106;28;20498;-48
2023/01/13 14:13:35;;;;;;;25.88;17.20;;;;;;;6.94;73.88;98109.13;10414177;28;20128;-51
2023/01/13 14:18:47;;;;;;;18.52;12.32;;;;;;;6.68;74.56;98119.78;10423296;28;20036;-48
2023/01/13 14:24:14;;;;;;;27.73;17.58;;;;;;;6.51;74.95;98109.09;10446827;28;20063;-51
2023/01/13 14:29:17;;;;;;;24.38;18.85;;;;;;;6.48;76.87;98115.91;10426220;28;20079;-48
2023/01/13 14:34:17;;;;;;;19.30;13.30;;;;;;;6.64;76.28;98120.56;10419616;28;20056;-49
2023/01/13 14:39:16;;;;;;;61.92;44.40;;;;;;;6.64;75.60;98127.44;10448282;28;20711;-49
2023/01/13 14:44:26;;;;;;;14.25;10.07;;;;;;;6.47;76.08;98117.63;10449446;28;20051;-51
2023/01/13 14:49:28;;;;;;;13.57;9.38;;;;;;;6.52;76.11;98116.03;10440746;28;20464;-49
2023/01/13 14:54:45;;;;;;;21.65;16.05;;;;;;;6.48;76.26;98105.59;10435609;28;20106;-50
2023/01/13 14:59:50;;;;;;;22.83;15.13;;;;;;;6.48;76.41;98101.31;10435449;28;20067;-49
2023/01/13 15:04:53;;;;;;;46.30;27.08;;;;;;;6.30;77.03;98078.59;10435256;28;20798;-51
2023/01/13 15:09:54;;;;;;;35.97;23.48;;;;;;;6.53;76.34;98099.69;10426485;28;20072;-48
2023/01/13 15:14:54;;;;;;;40.40;25.10;;;;;;;6.22;77.00;98054.38;10432000;28;20079;-50
2023/01/13 15:19:53;;;;;;;47.45;27.95;;;;;;;6.45;77.18;98090.09;10422028;28;20075;-50
2023/01/13 15:24:52;;;;;;;44.03;28.85;;;;;;;6.52;76.65;98102.25;10415256;28;20035;-51
2023/01/13 15:29:50;;;;;;;81.60;52.53;;;;;;;6.40;76.66;98119.22;10417002;28;20128;-49
2023/01/13 15:34:51;;;;;;;49.92;33.47;;;;;;;6.13;77.77;98103.16;10415530;28;20037;-50
2023/01/13 15:39:50;;;;;;;40.17;27.15;;;;;;;6.00;79.06;98126.88;10416274;28;20099;-51
2023/01/13 15:50:14;;;;;;;46.70;30.58;;;;;;;5.80;79.71;98088.66;10416661;28;20099;-50
2023/01/13 15:55:13;;;;;;;50.17;32.80;;;;;;;6.08;79.93;98125.38;10409311;28;21577;-51
2023/01/13 16:00:15;;;;;;;40.58;24.75;;;;;;;5.86;80.06;98104.28;10412698;28;20049;-50
2023/01/13 16:05:15;;;;;;;66.72;41.70;;;;;;;6.00;80.59;98111.44;10386320;28;20061;-51
2023/01/13 16:10:25;;;;;;;56.97;32.33;;;;;;;5.59;80.83;98080.44;10382876;28;20068;-49
2023/01/13 16:15:25;;;;;;;56.13;32.97;;;;;;;5.86;80.88;98113.69;10403533;28;20487;-51
2023/01/13 16:20:24;;;;;;;83.43;48.88;;;;;;;5.89;80.63;98109.47;10417749;28;20087;-51
2023/01/13 16:25:25;;;;;;;77.13;48.72;;;;;;;5.95;80.43;98107.06;10425216;28;20071;-49
2023/01/13 16:30:28;;;;;;;59.10;42.15;;;;;;;5.96;80.86;98113.06;10430089;28;20456;-51
2023/01/13 16:35:30;;;;;;;66.57;45.45;;;;;;;6.02;81.14;98113.19;10388605;28;20068;-49
2023/01/13 16:40:32;;;;;;;55.28;38.95;;;;;;;6.01;81.09;98105.44;10399476;28;20075;-48
2023/01/13 16:45:32;;;;;;;56.17;38.63;;;;;;;6.05;81.24;98104.69;10397140;28;20187;-50
2023/01/13 16:50:40;;;;;;;105.28;52.15;;;;;;;6.13;80.62;98113.44;10412658;28;20080;-50
2023/01/13 16:55:40;;;;;;;74.40;44.47;;;;;;;6.14;80.40;98116.06;10394958;28;20079;-50
2023/01/13 17:00:40;;;;;;;59.97;41.17;;;;;;;6.01;80.37;98103.75;10371847;28;20072;-48
2023/01/13 17:05:41;;;;;;;57.13;40.25;;;;;;;6.17;80.43;98117.84;10395410;28;20072;-51
2023/01/13 17:10:40;;;;;;;58.97;39.30;;;;;;;6.26;80.11;98110.31;10374510;28;20091;-50
2023/01/13 17:31:37;;;;;;;97.35;61.60;;;;;;;5.67;81.21;98020.59;10492086;27;20997;-47
2023/01/13 17:36:37;;;;;;;108.20;68.40;;;;;;;6.28;80.42;98100.91;10447126;28;20067;-48
2023/01/13 17:41:36;;;;;;;87.60;56.47;;;;;;;6.24;80.00;98095.66;10446906;28;20507;-48
2023/01/13 17:46:35;;;;;;;75.32;47.38;;;;;;;6.27;80.31;98090.56;10448824;28;20502;-47
2023/01/13 17:51:34;;;;;;;67.90;45.20;;;;;;;6.15;80.38;98086.00;10445144;28;20059;-47
2023/01/13 17:56:33;;;;;;;60.63;40.08;;;;;;;6.14;80.74;98092.88;10443399;28;20058;-47
2023/01/13 18:01:32;;;;;;;60.25;38.83;;;;;;;6.17;80.45;98097.22;10443822;28;20369;-49
2023/01/13 18:06:31;;;;;;;44.33;30.65;;;;;;;6.12;80.75;98083.38;10435002;28;20048;-48
2023/01/13 18:11:30;;;;;;;78.35;43.83;;;;;;;6.18;80.68;98097.25;10442202;28;20071;-47
2023/01/13 18:16:30;;;;;;;59.45;32.47;;;;;;;6.19;81.44;98118.75;10429644;28;20020;-47
2023/01/13 18:32:06;;;;;;;64.07;40.65;;;;;;;6.04;81.76;98113.25;10419751;28;20071;-50
2023/01/13 18:37:07;;;;;;;71.13;43.22;;;;;;;6.04;81.75;98103.81;10416791;28;20075;-47
2023/01/13 18:47:28;;;;;;;55.40;36.00;;;;;;;5.27;83.27;98052.22;10414503;28;20111;-47
2023/01/13 18:52:27;;;;;;;64.07;44.85;;;;;;;4.99;84.00;98043.78;10417819;28;20463;-46
2023/01/13 18:57:26;;;;;;;84.68;54.45;;;;;;;5.39;83.78;98095.38;10417707;28;20063;-50
2023/01/13 19:02:27;;;;;;;90.38;60.47;;;;;;;5.35;83.83;98097.03;10416940;28;20040;-49
2023/01/13 19:07:28;;;;;;;69.40;43.40;;;;;;;5.13;83.84;98093.03;10416822;28;20102;-47
2023/01/13 19:12:26;;;;;;;66.60;42.85;;;;;;;5.06;83.76;98085.97;10417149;28;20075;-47
2023/01/13 19:17:31;;;;;;;70.30;44.33;;;;;;;4.83;83.94;98077.63;10416807;28;20036;-47
2023/01/13 19:22:33;;;;;;;67.30;43.20;;;;;;;4.86;83.66;98083.72;10412025;28;20080;-47
2023/01/13 19:27:32;;;;;;;78.75;52.85;;;;;;;4.90;83.32;98084.69;10414625;28;20067;-48
2023/01/13 19:32:31;;;;;;;104.68;66.18;;;;;;;4.82;83.29;98081.03;10414077;28;20036;-49
2023/01/13 19:37:32;;;;;;;119.35;79.15;;;;;;;4.55;83.58;98066.59;10416715;28;20424;-47
2023/01/13 19:47:48;;;;;;;93.90;62.05;;;;;;;4.15;84.06;98082.56;10416469;28;20059;-48
2023/01/13 19:52:47;;;;;;;100.65;68.20;;;;;;;4.00;84.39;98080.41;10414899;28;20013;-48
2023/01/13 19:57:46;;;;;;;147.25;93.05;;;;;;;3.73;84.96;98055.66;10415535;28;20111;-47
2023/01/13 20:02:48;;;;;;;;;;;;;;;3.80;84.90;98067.84;10416196;28;20076;-46
2023/01/13 20:07:48;;;;;;;127.70;73.15;;;;;;;3.82;85.13;98070.44;10414089;28;19944;-47
2023/01/13 20:12:47;;;;;;;111.03;65.13;;;;;;;3.88;84.91;98064.66;10412517;28;20103;-47
2023/01/13 20:17:46;;;;;;;161.55;83.80;;;;;;;3.49;84.59;97991.59;10412701;28;20064;-48
2023/01/13 20:22:45;;;;;;;106.30;65.25;;;;;;;3.81;84.54;98056.75;10414358;28;20080;-48
2023/01/13 20:27:46;;;;;;;114.13;68.70;;;;;;;3.77;84.16;98056.59;10414251;28;20040;-47
2023/01/13 20:32:45;;;;;;;149.43;85.97;;;;;;;3.67;84.23;98055.47;10412185;28;20068;-47
2023/01/13 20:37:44;;;;;;;114.82;74.43;;;;;;;3.60;84.52;98054.41;10412964;28;20032;-46
2023/01/13 20:42:45;;;;;;;193.93;114.15;;;;;;;3.48;84.33;98058.28;10409227;28;20037;-47
2023/01/13 20:47:45;;;;;;;151.48;97.53;;;;;;;3.13;85.21;98058.00;10392161;28;20557;-46
2023/01/13 20:52:44;;;;;;;;;;;;;;;2.77;85.34;98061.94;10413498;28;20064;-46
2023/01/13 20:57:47;;;;;;;88.45;53.40;;;;;;;2.73;84.62;98056.66;10411388;28;19920;-48
2023/01/13 21:02:46;;;;;;;121.32;70.88;;;;;;;2.65;85.25;98064.06;10412752;28;20064;-46
2023/01/13 21:07:45;;;;;;;102.53;60.55;;;;;;;2.58;85.19;98042.50;10414094;28;20032;-49
2023/01/13 21:23:18;;;;;;;217.45;119.85;;;;;;;2.34;85.71;97987.84;10412261;28;20429;-47
2023/01/13 21:28:17;;;;;;;168.55;96.20;;;;;;;2.59;86.07;98046.78;10412707;28;20423;-47
2023/01/13 21:33:16;;;;;;;177.52;105.97;;;;;;;2.28;86.62;98013.25;10407488;28;20043;-49
2023/01/13 21:38:15;;;;;;;203.43;124.38;;;;;;;2.45;86.06;98048.00;10409212;28;20028;-47
2023/01/13 21:48:32;;;;;;;219.32;131.40;;;;;;;2.15;87.51;98053.75;10390932;28;20554;-47
2023/01/13 21:53:31;;;;;;;408.92;189.73;;;;;;;2.13;87.67;98051.94;10413450;28;20079;-47
2023/01/13 21:58:30;;;;;;;427.02;178.07;;;;;;;2.18;87.22;98047.88;10412100;28;20107;-47
2023/01/13 22:03:29;;;;;;;326.15;131.75;;;;;;;2.17;86.97;98052.13;10412079;28;20036;-47
2023/01/13 22:08:29;;;;;;;325.35;131.10;;;;;;;2.22;87.08;98061.66;10419302;28;20060;-47
2023/01/13 22:18:45;;;;;;;123.35;61.75;;;;;;;2.29;87.20;98054.25;10419001;28;20060;-47
2023/01/13 22:23:44;;;;;;;185.77;94.20;;;;;;;2.21;88.13;98057.34;10417927;28;20418;-47
2023/01/13 22:28:43;;;;;;;182.52;99.93;;;;;;;2.28;87.89;98047.41;10418742;28;20093;-48
2023/01/13 22:33:42;;;;;;;184.27;108.53;;;;;;;2.23;88.78;98050.59;10419212;28;20045;-47
2023/01/13 22:38:41;;;;;;;;;;;;;;;2.43;88.84;98047.06;10419191;28;20529;-48
2023/01/13 22:43:40;;;;;;;215.10;124.15;;;;;;;2.51;88.55;98029.41;10419402;28;20378;-47
2023/01/13 22:48:39;;;;;;;196.32;116.57;;;;;;;2.66;88.58;98042.75;10416662;28;20574;-47
2023/01/13 22:53:39;;;;;;;139.50;90.47;;;;;;;2.63;87.94;98040.09;10418187;28;20111;-47
2023/01/13 22:58:38;;;;;;;113.78;71.30;;;;;;;2.61;88.80;98051.13;10416866;28;20048;-48
2023/01/13 23:03:37;;;;;;;120.65;73.22;;;;;;;2.65;88.76;98058.94;10415354;28;20111;-47
2023/01/13 23:08:36;;;;;;;118.22;71.72;;;;;;;2.82;88.94;98054.41;10417402;28;20059;-50
2023/01/13 23:13:41;;;;;;;113.72;66.70;;;;;;;2.94;88.51;98053.97;10415246;28;20474;-47
2023/01/13 23:18:47;;;;;;;122.70;66.75;;;;;;;3.04;88.29;98055.13;10374870;28;20065;-49
2023/01/13 23:23:47;;;;;;;109.97;61.45;;;;;;;3.15;88.65;98048.69;10401900;28;20127;-48
2023/01/13 23:28:46;;;;;;;109.05;62.80;;;;;;;3.29;88.07;98038.88;10417036;28;20099;-49
2023/01/13 23:33:46;;;;;;;112.50;63.05;;;;;;;3.42;87.69;98047.00;10417169;28;20075;-47
2023/01/13 23:38:46;;;;;;;102.05;59.85;;;;;;;3.43;87.70;98035.03;10418652;28;20056;-49
2023/01/13 23:43:50;;;;;;;98.10;56.25;;;;;;;3.39;87.06;98048.59;10418130;28;20555;-50
2023/01/13 23:48:50;;;;;;;93.78;53.42;;;;;;;3.37;87.57;98051.09;10415866;28;20063;-47
2023/01/13 23:53:50;;;;;;;102.45;54.65;;;;;;;3.40;86.73;98055.44;10418402;28;20068;-47
2023/01/13 23:58:50;;;;;;;115.07;57.20;;;;;;;3.14;87.14;98031.53;10415017;28;20064;-48
